createdAt,value
2019-01-29T00:01:59.504Z,66.30
2019-01-29T00:04:28.788Z,66.50
2019-01-29T00:06:58.084Z,66.60
2019-01-29T00:09:27.373Z,66.80
2019-01-29T00:11:56.730Z,67.10
2019-01-29T00:14:26.104Z,67.10
2019-01-29T00:16:55.385Z,67.30
2019-01-29T00:19:25.550Z,67.40
2019-01-29T00:21:54.924Z,67.60
2019-01-29T00:24:24.175Z,67.70
2019-01-29T00:26:53.468Z,67.90
2019-01-29T00:29:22.760Z,68.00
2019-01-29T00:31:52.045Z,68.00
2019-01-29T00:34:21.326Z,68.20
2019-01-29T00:36:50.660Z,68.30
2019-01-29T00:39:19.948Z,68.50
2019-01-29T00:41:49.204Z,68.50
2019-01-29T00:44:18.568Z,68.70
2019-01-29T00:46:47.835Z,68.70
2019-01-29T00:49:17.066Z,68.80
2019-01-29T00:51:46.338Z,68.80
2019-01-29T00:54:15.624Z,68.90
2019-01-29T00:56:44.976Z,68.80
2019-01-29T00:59:14.348Z,69.00
2019-01-29T01:01:43.871Z,69.10
2019-01-29T01:04:13.380Z,69.20
2019-01-29T01:06:48.683Z,69.10
2019-01-29T01:09:17.948Z,69.20
2019-01-29T01:11:47.235Z,69.20
2019-01-29T01:14:16.590Z,69.20
2019-01-29T01:16:45.920Z,69.20
2019-01-29T01:19:15.220Z,69.00
2019-01-29T01:21:44.466Z,69.10
2019-01-29T01:24:13.736Z,69.40
2019-01-29T01:26:43.078Z,69.40
2019-01-29T01:29:12.418Z,69.20
2019-01-29T01:31:41.792Z,69.40
2019-01-29T01:34:11.142Z,70.20
2019-01-29T01:36:40.596Z,69.40
2019-01-29T01:39:09.961Z,69.40
2019-01-29T01:41:39.235Z,69.40
2019-01-29T01:44:09.080Z,69.40
2019-01-29T01:46:38.514Z,69.40
2019-01-29T01:49:07.820Z,69.20
2019-01-29T01:51:37.182Z,69.30
2019-01-29T01:54:06.682Z,69.40
2019-01-29T01:56:35.985Z,69.60
2019-01-29T01:59:05.247Z,69.80
2019-01-29T02:01:34.865Z,70.00
2019-01-29T02:04:04.190Z,70.20
2019-01-29T02:06:33.386Z,70.30
2019-01-29T02:09:03.860Z,70.40
2019-01-29T02:11:33.076Z,70.50
2019-01-29T02:14:02.410Z,70.50
2019-01-29T02:16:31.764Z,70.50
2019-01-29T02:19:00.966Z,70.50
2019-01-29T02:21:30.849Z,70.50
2019-01-29T02:24:00.107Z,70.40
2019-01-29T02:26:29.479Z,70.30
2019-01-29T02:28:58.852Z,70.20
2019-01-29T02:31:28.147Z,70.20
2019-01-29T02:33:57.409Z,71.00
2019-01-29T02:36:26.722Z,70.90
2019-01-29T02:38:56.893Z,70.10
2019-01-29T02:41:26.147Z,70.00
2019-01-29T02:43:55.497Z,70.00
2019-01-29T02:46:24.774Z,70.10
2019-01-29T02:48:53.993Z,70.00
2019-01-29T02:51:23.344Z,70.00
2019-01-29T02:53:52.714Z,69.80
2019-01-29T02:56:22.035Z,69.70
2019-01-29T02:58:51.317Z,69.60
2019-01-29T03:01:20.593Z,69.60
2019-01-29T03:03:50.294Z,69.40
2019-01-29T03:06:19.853Z,69.20
2019-01-29T03:08:49.099Z,69.20
2019-01-29T03:11:18.402Z,69.10
2019-01-29T03:13:47.675Z,69.00
2019-01-29T03:16:16.949Z,68.90
2019-01-29T03:18:46.235Z,68.80
2019-01-29T03:21:15.700Z,69.10
2019-01-29T03:23:45.061Z,69.00
2019-01-29T03:26:14.323Z,69.40
2019-01-29T03:28:43.689Z,69.40
2019-01-29T03:31:12.983Z,69.50
2019-01-29T03:33:42.289Z,69.50
2019-01-29T03:36:11.661Z,70.40
2019-01-29T03:38:41.041Z,69.60
2019-01-29T03:41:10.375Z,69.70
2019-01-29T03:43:39.705Z,69.70
2019-01-29T03:46:08.985Z,69.60
2019-01-29T03:48:38.275Z,69.70
2019-01-29T03:51:07.556Z,69.70
2019-01-29T03:53:38.252Z,69.70
2019-01-29T03:56:07.717Z,69.70
2019-01-29T03:58:36.968Z,69.80
2019-01-29T04:01:06.447Z,69.70
2019-01-29T04:03:36.386Z,69.70
2019-01-29T04:06:05.769Z,69.80
2019-01-29T04:08:35.039Z,69.70
2019-01-29T04:11:04.365Z,69.80
2019-01-29T04:13:34.815Z,69.70
2019-01-29T04:16:05.125Z,69.70
2019-01-29T04:18:34.511Z,69.70
2019-01-29T04:21:03.868Z,69.50
2019-01-29T04:23:33.253Z,69.50
2019-01-29T04:26:02.543Z,69.60
2019-01-29T04:28:31.973Z,69.50
2019-01-29T04:31:01.252Z,69.20
2019-01-29T04:33:30.613Z,69.30
2019-01-29T04:35:59.965Z,69.40
2019-01-29T04:38:29.957Z,69.50
2019-01-29T04:40:59.320Z,69.60
2019-01-29T04:43:29.167Z,69.40
2019-01-29T04:45:58.461Z,69.40
2019-01-29T04:48:28.038Z,69.50
2019-01-29T04:50:57.297Z,69.50
2019-01-29T04:53:26.641Z,69.70
2019-01-29T04:55:55.985Z,69.60
2019-01-29T04:58:25.395Z,70.50
2019-01-29T05:00:54.735Z,69.80
2019-01-29T05:03:24.031Z,69.80
2019-01-29T05:05:53.727Z,69.90
2019-01-29T05:08:25.357Z,70.00
2019-01-29T05:10:54.988Z,70.00
2019-01-29T05:13:24.360Z,69.90
2019-01-29T05:15:53.657Z,69.80
2019-01-29T05:18:23.011Z,69.60
2019-01-29T05:20:52.328Z,69.80
2019-01-29T05:23:21.688Z,69.60
2019-01-29T05:25:50.945Z,69.60
2019-01-29T05:28:39.400Z,69.60
2019-01-29T05:31:08.694Z,69.90
2019-01-29T05:33:38.101Z,69.20
2019-01-29T05:36:07.377Z,69.00
2019-01-29T05:38:36.665Z,68.90
2019-01-29T05:41:05.929Z,69.70
2019-01-29T05:43:36.400Z,68.80
2019-01-29T05:46:05.745Z,68.50
2019-01-29T05:48:35.299Z,68.40
2019-01-29T05:51:04.661Z,68.50
2019-01-29T05:53:34.016Z,68.30
2019-01-29T05:56:03.353Z,68.30
2019-01-29T05:58:32.584Z,68.00
2019-01-29T06:01:01.895Z,67.80
2019-01-29T06:03:31.235Z,67.80
2019-01-29T06:06:29.432Z,67.80
2019-01-29T06:08:58.724Z,67.90
2019-01-29T06:11:28.093Z,67.50
2019-01-29T06:13:57.409Z,67.50
2019-01-29T06:16:26.683Z,67.50
2019-01-29T06:18:56.045Z,67.50
2019-01-29T06:21:25.389Z,67.50
2019-01-29T06:23:54.741Z,67.50
2019-01-29T06:26:24.118Z,67.60
2019-01-29T06:28:53.458Z,67.60
2019-01-29T06:31:22.749Z,67.80
2019-01-29T06:33:52.065Z,68.30
2019-01-29T06:36:21.354Z,67.80
2019-01-29T06:38:52.654Z,67.60
2019-01-29T06:41:23.992Z,67.50
2019-01-29T06:43:53.068Z,67.60
2019-01-29T06:46:22.380Z,67.60
2019-01-29T06:48:51.650Z,67.50
2019-01-29T06:51:21.071Z,67.60
2019-01-29T06:53:50.349Z,67.60
2019-01-29T06:56:19.801Z,67.60
2019-01-29T06:58:49.152Z,67.60
2019-01-29T07:01:18.396Z,67.60
2019-01-29T07:03:47.708Z,67.70
2019-01-29T07:06:28.341Z,67.60
2019-01-29T07:08:57.619Z,67.40
2019-01-29T07:11:27.016Z,67.30
2019-01-29T07:13:56.391Z,67.50
2019-01-29T07:16:36.649Z,67.50
2019-01-29T07:19:28.247Z,67.60
2019-01-29T07:21:57.627Z,67.60
2019-01-29T07:24:26.924Z,67.60
2019-01-29T07:26:56.428Z,67.30
2019-01-29T07:29:26.368Z,67.40
2019-01-29T07:31:55.733Z,67.40
2019-01-29T07:34:25.028Z,67.40
2019-01-29T07:36:54.381Z,67.50
2019-01-29T07:39:23.596Z,67.60
2019-01-29T07:41:52.789Z,67.50
2019-01-29T07:44:22.132Z,67.60
2019-01-29T07:46:51.489Z,67.60
2019-01-29T07:49:20.912Z,67.50
2019-01-29T07:51:50.194Z,67.50
2019-01-29T07:54:20.760Z,67.40
2019-01-29T07:56:50.056Z,67.40
2019-01-29T07:59:32.565Z,67.20
2019-01-29T08:01:50.367Z,67.10
2019-01-29T08:04:19.777Z,67.30
2019-01-29T08:06:49.045Z,67.30
2019-01-29T08:09:19.604Z,66.90
2019-01-29T08:11:49.015Z,66.70
2019-01-29T08:14:18.672Z,67.00
2019-01-29T08:16:48.041Z,66.80
2019-01-29T08:19:17.359Z,66.50
2019-01-29T08:21:46.701Z,66.50
2019-01-29T08:24:16.385Z,66.20
2019-01-29T08:26:46.781Z,66.30
2019-01-29T08:29:16.240Z,66.50
2019-01-29T08:31:45.591Z,66.50
2019-01-29T08:34:14.867Z,66.50
2019-01-29T08:36:44.300Z,66.40
2019-01-29T08:39:13.824Z,66.30
2019-01-29T08:41:43.120Z,66.30
2019-01-29T08:44:12.452Z,66.30
2019-01-29T08:46:41.669Z,66.20
2019-01-29T08:49:10.936Z,66.40
2019-01-29T08:51:40.248Z,66.40
2019-01-29T08:54:09.449Z,66.30
2019-01-29T08:56:38.722Z,66.50
2019-01-29T08:59:07.928Z,67.20
2019-01-29T09:01:37.347Z,66.30
2019-01-29T09:04:06.762Z,66.40
2019-01-29T09:06:36.156Z,66.50
2019-01-29T09:09:09.158Z,66.50
2019-01-29T09:11:39.910Z,67.30
2019-01-29T09:14:09.280Z,66.50
2019-01-29T09:16:38.689Z,66.70
2019-01-29T09:19:08.082Z,66.80
2019-01-29T09:21:37.456Z,66.80
2019-01-29T09:24:06.660Z,66.80
2019-01-29T09:26:36.268Z,66.80
2019-01-29T09:29:05.586Z,66.90
2019-01-29T09:31:34.880Z,66.70
2019-01-29T09:34:04.107Z,66.80
2019-01-29T09:36:34.049Z,66.90
2019-01-29T09:39:05.772Z,67.00
2019-01-29T09:41:35.091Z,67.20
2019-01-29T09:44:04.527Z,67.10
2019-01-29T09:46:33.869Z,67.10
2019-01-29T09:49:03.240Z,67.00
2019-01-29T09:51:32.492Z,66.70
2019-01-29T09:54:01.782Z,67.00
2019-01-29T09:56:31.111Z,66.70
2019-01-29T09:59:00.482Z,66.50
2019-01-29T10:01:29.808Z,66.60
2019-01-29T10:03:59.152Z,66.70
2019-01-29T10:06:28.464Z,66.50
2019-01-29T10:08:57.734Z,66.50
2019-01-29T10:11:28.592Z,66.60
2019-01-29T10:13:57.982Z,66.30
2019-01-29T10:16:27.338Z,66.00
2019-01-29T10:18:56.628Z,65.90
2019-01-29T10:21:25.910Z,65.80
2019-01-29T10:23:55.266Z,65.30
2019-01-29T10:26:24.512Z,65.20
2019-01-29T10:28:53.930Z,65.00
2019-01-29T10:31:24.355Z,64.90
2019-01-29T10:34:01.429Z,65.00
2019-01-29T10:36:30.970Z,64.80
2019-01-29T10:39:00.340Z,64.90
2019-01-29T10:41:29.623Z,64.70
2019-01-29T10:43:58.841Z,64.50
2019-01-29T10:46:28.245Z,64.20
2019-01-29T10:48:57.632Z,64.40
2019-01-29T10:51:27.059Z,64.10
2019-01-29T10:53:56.387Z,64.10
2019-01-29T10:56:25.666Z,64.20
2019-01-29T10:58:55.091Z,63.80
2019-01-29T11:01:24.629Z,63.60
2019-01-29T11:03:54.011Z,63.10
2019-01-29T11:06:23.392Z,63.10
2019-01-29T11:08:52.661Z,63.60
2019-01-29T11:11:21.939Z,64.00
2019-01-29T11:13:51.236Z,63.80
2019-01-29T11:16:20.536Z,63.70
2019-01-29T11:18:49.824Z,63.70
2019-01-29T11:21:19.026Z,63.70
2019-01-29T11:23:48.308Z,63.60
2019-01-29T11:26:17.626Z,63.60
2019-01-29T11:28:46.890Z,63.50
2019-01-29T11:31:16.371Z,63.40
2019-01-29T11:33:45.656Z,62.80
2019-01-29T11:36:15.032Z,62.20
2019-01-29T11:38:44.398Z,61.80
2019-01-29T11:41:13.864Z,62.10
2019-01-29T11:43:43.240Z,62.40
2019-01-29T11:46:12.742Z,62.40
2019-01-29T11:48:42.118Z,62.30
2019-01-29T11:51:11.380Z,62.40
2019-01-29T11:53:40.646Z,62.20
2019-01-29T11:56:09.992Z,61.90
2019-01-29T11:58:39.310Z,61.50
2019-01-29T12:01:10.110Z,61.30
2019-01-29T12:03:39.484Z,61.20
2019-01-29T12:06:08.889Z,61.30
2019-01-29T12:08:38.305Z,61.30
2019-01-29T12:11:07.592Z,61.20
2019-01-29T12:13:36.908Z,61.40
2019-01-29T12:16:06.106Z,61.50
2019-01-29T12:18:35.497Z,61.30
2019-01-29T12:21:05.029Z,61.40
2019-01-29T12:23:34.381Z,61.40
2019-01-29T12:26:03.734Z,61.60
2019-01-29T12:28:33.126Z,61.40
2019-01-29T12:31:02.458Z,61.30
2019-01-29T12:33:31.817Z,61.10
2019-01-29T12:36:01.015Z,61.10
2019-01-29T12:38:31.216Z,61.20
2019-01-29T12:41:00.558Z,61.30
2019-01-29T12:43:29.934Z,61.30
2019-01-29T12:45:59.274Z,60.90
2019-01-29T12:48:28.600Z,61.30
2019-01-29T12:50:59.012Z,60.80
2019-01-29T12:53:32.328Z,60.80
2019-01-29T12:56:01.586Z,60.40
2019-01-29T12:58:31.108Z,60.50
2019-01-29T13:01:00.662Z,61.30
2019-01-29T13:03:29.950Z,60.30
2019-01-29T13:05:59.284Z,60.30
2019-01-29T13:08:28.521Z,60.20
2019-01-29T13:10:57.889Z,60.10
2019-01-29T13:13:27.452Z,60.20
2019-01-29T13:15:56.766Z,60.00
2019-01-29T13:18:26.134Z,60.10
2019-01-29T13:20:55.435Z,60.00
2019-01-29T13:23:24.840Z,60.00
2019-01-29T13:25:54.127Z,60.30
2019-01-29T13:28:23.403Z,60.40
2019-01-29T13:30:52.790Z,60.40
2019-01-29T13:33:22.175Z,60.40
2019-01-29T13:35:51.611Z,60.30
2019-01-29T13:38:20.920Z,60.30
2019-01-29T13:40:50.205Z,60.00
2019-01-29T13:43:19.551Z,59.80
2019-01-29T13:45:48.961Z,59.70
2019-01-29T13:48:18.352Z,59.50
2019-01-29T13:50:51.642Z,59.50
2019-01-29T13:53:21.012Z,59.50
2019-01-29T13:55:50.341Z,59.50
2019-01-29T13:58:19.782Z,59.50
2019-01-29T14:00:49.152Z,59.40
2019-01-29T14:03:18.790Z,59.30
2019-01-29T14:05:50.361Z,59.30
2019-01-29T14:08:22.710Z,59.00
2019-01-29T14:10:52.096Z,59.10
2019-01-29T14:13:21.489Z,59.10
2019-01-29T14:15:58.363Z,59.10
2019-01-29T14:18:30.150Z,59.10
2019-01-29T14:21:00.551Z,59.20
2019-01-29T14:23:30.129Z,59.20
2019-01-29T14:25:59.482Z,59.30
2019-01-29T14:28:28.850Z,59.30
2019-01-29T14:30:58.336Z,59.40
2019-01-29T14:33:27.761Z,59.20
2019-01-29T14:35:57.128Z,59.00
2019-01-29T14:39:13.363Z,59.10
2019-01-29T14:41:42.740Z,59.20
2019-01-29T14:44:16.830Z,59.10
2019-01-29T14:46:46.195Z,59.10
2019-01-29T14:49:15.684Z,59.10
2019-01-29T14:51:45.085Z,59.00
2019-01-29T14:54:14.472Z,59.00
2019-01-29T14:56:43.858Z,59.00
2019-01-29T14:59:13.147Z,58.90
2019-01-29T15:01:43.923Z,58.90
2019-01-29T15:04:13.441Z,58.90
2019-01-29T15:06:42.830Z,59.00
2019-01-29T15:09:13.496Z,58.90
2019-01-29T15:11:42.902Z,58.90
2019-01-29T15:14:12.350Z,58.80
2019-01-29T15:17:00.983Z,58.90
2019-01-29T15:19:31.788Z,58.90
2019-01-29T15:22:06.440Z,58.90
2019-01-29T15:24:35.933Z,58.80
2019-01-29T15:27:06.109Z,58.80
2019-01-29T15:29:35.522Z,58.90
2019-01-29T15:32:04.977Z,58.80
2019-01-29T15:34:34.530Z,58.90
2019-01-29T15:37:04.186Z,58.80
2019-01-29T15:39:33.619Z,58.70
2019-01-29T15:42:03.030Z,58.70
2019-01-29T15:44:32.378Z,58.80
2019-01-29T15:47:01.947Z,58.70
2019-01-29T15:49:31.533Z,58.60
2019-01-29T15:52:01.220Z,58.40
2019-01-29T15:54:31.626Z,58.60
2019-01-29T15:57:04.049Z,58.60
2019-01-29T15:59:42.602Z,58.60
2019-01-29T16:02:05.797Z,58.60
2019-01-29T16:04:35.330Z,58.60
2019-01-29T16:07:05.265Z,58.60
2019-01-29T16:09:34.685Z,58.60
2019-01-29T16:12:04.086Z,58.60
2019-01-29T16:14:33.646Z,58.60
2019-01-29T16:17:03.308Z,58.50
2019-01-29T16:19:32.729Z,58.50
2019-01-29T16:22:01.955Z,59.10
2019-01-29T16:24:31.309Z,58.50
2019-01-29T16:27:06.642Z,58.50
2019-01-29T16:29:31.701Z,58.50
2019-01-29T16:32:01.235Z,58.50
2019-01-29T16:34:30.783Z,58.50
2019-01-29T16:37:00.482Z,58.00
2019-01-29T16:39:30.090Z,58.40
2019-01-29T16:41:59.687Z,58.40
2019-01-29T16:44:29.295Z,58.40
2019-01-29T16:47:00.197Z,58.40
2019-01-29T16:49:29.775Z,58.50
2019-01-29T16:51:59.283Z,58.50
2019-01-29T16:54:34.053Z,58.40
2019-01-29T16:57:06.657Z,58.60
2019-01-29T16:59:36.195Z,58.50
2019-01-29T17:02:08.385Z,58.50
2019-01-29T17:04:41.177Z,58.50
2019-01-29T17:07:10.819Z,58.60
2019-01-29T17:09:40.409Z,58.60
2019-01-29T17:12:11.531Z,58.60
2019-01-29T17:14:41.231Z,58.50
2019-01-29T17:17:11.334Z,58.60
2019-01-29T17:19:45.022Z,58.60
2019-01-29T17:22:17.550Z,58.70
2019-01-29T17:24:47.130Z,58.70
2019-01-29T17:27:16.695Z,58.70
2019-01-29T17:29:49.297Z,58.70
2019-01-29T17:32:20.321Z,58.80
2019-01-29T17:34:55.805Z,58.80
2019-01-29T17:37:32.408Z,58.80
2019-01-29T17:40:01.941Z,58.80
2019-01-29T17:42:33.757Z,58.80
2019-01-29T17:45:07.429Z,58.90
2019-01-29T17:47:37.027Z,58.90
2019-01-29T17:50:11.831Z,59.00
2019-01-29T17:52:41.659Z,59.00
2019-01-29T17:55:12.483Z,59.00
2019-01-29T17:57:50.498Z,59.00
2019-01-29T18:00:18.957Z,59.00
2019-01-29T18:02:48.391Z,59.00
2019-01-29T18:05:17.903Z,59.10
2019-01-29T18:07:53.509Z,59.10
2019-01-29T18:10:23.347Z,59.00
2019-01-29T18:12:53.169Z,59.10
2019-01-29T18:15:26.639Z,59.10
2019-01-29T18:17:56.204Z,59.20
2019-01-29T18:20:35.791Z,59.20
2019-01-29T18:23:06.078Z,59.30
2019-01-29T18:25:35.883Z,59.30
2019-01-29T18:28:08.457Z,59.40
2019-01-29T18:30:40.505Z,59.40
2019-01-29T18:33:11.037Z,59.40
2019-01-29T18:35:40.607Z,59.50
2019-01-29T18:38:10.036Z,59.60
2019-01-29T18:40:46.857Z,59.50
2019-01-29T18:43:16.670Z,59.50
2019-01-29T18:45:50.124Z,59.50
2019-01-29T18:48:23.816Z,59.50
2019-01-29T18:50:54.507Z,59.50
2019-01-29T18:53:26.891Z,59.50
2019-01-29T18:55:57.279Z,59.50
2019-01-29T18:58:27.524Z,59.70
2019-01-29T19:00:57.283Z,59.70
2019-01-29T19:03:29.747Z,59.70
2019-01-29T19:05:59.422Z,59.60
2019-01-29T19:08:30.156Z,59.70
2019-01-29T19:11:00.042Z,59.70
2019-01-29T19:13:29.648Z,59.70
2019-01-29T19:15:59.636Z,59.70
2019-01-29T19:18:29.065Z,59.70
2019-01-29T19:20:58.464Z,59.70
2019-01-29T19:23:27.834Z,59.60
2019-01-29T19:25:57.437Z,59.70
2019-01-29T19:28:27.069Z,59.70
2019-01-29T19:30:56.631Z,59.70
2019-01-29T19:33:27.405Z,59.70
2019-01-29T19:35:56.955Z,59.70
2019-01-29T19:38:28.231Z,59.70
2019-01-29T19:40:57.847Z,59.80
2019-01-29T19:43:29.019Z,59.80
2019-01-29T19:45:59.943Z,59.80
2019-01-29T19:48:29.886Z,59.80
2019-01-29T19:50:59.535Z,59.80
2019-01-29T19:53:30.226Z,59.90
2019-01-29T19:56:03.287Z,60.00
2019-01-29T19:58:32.761Z,59.90
2019-01-29T20:01:02.436Z,60.10
2019-01-29T20:03:32.335Z,60.10
2019-01-29T20:06:03.385Z,60.20
2019-01-29T20:08:32.801Z,60.10
2019-01-29T20:11:02.160Z,60.30
2019-01-29T20:13:32.281Z,60.30
2019-01-29T20:16:01.789Z,60.60
2019-01-29T20:18:31.985Z,60.50
2019-01-29T20:21:01.431Z,60.50
2019-01-29T20:23:33.614Z,60.60
2019-01-29T20:26:03.209Z,60.70
2019-01-29T20:28:42.022Z,60.70
2019-01-29T20:31:04.525Z,60.70
2019-01-29T20:33:34.013Z,60.70
2019-01-29T20:36:03.585Z,60.70
2019-01-29T20:38:35.262Z,61.60
2019-01-29T20:41:05.875Z,60.90
2019-01-29T20:43:35.413Z,60.90
2019-01-29T20:46:06.084Z,60.90
2019-01-29T20:48:35.492Z,60.80
2019-01-29T20:51:05.230Z,60.90
2019-01-29T20:53:34.911Z,61.00
2019-01-29T20:56:04.759Z,61.00
2019-01-29T20:58:34.481Z,61.00
2019-01-29T21:01:23.273Z,61.00
2019-01-29T21:03:53.072Z,61.00
2019-01-29T21:06:22.941Z,61.10
2019-01-29T21:08:52.725Z,61.10
2019-01-29T21:11:22.511Z,61.10
2019-01-29T21:13:52.125Z,61.10
2019-01-29T21:16:21.834Z,61.10
2019-01-29T21:18:51.540Z,61.10
2019-01-29T21:21:21.081Z,61.00
2019-01-29T21:23:50.604Z,61.10
2019-01-29T21:26:20.198Z,61.10
2019-01-29T21:28:49.834Z,61.10
2019-01-29T21:31:20.414Z,61.10
2019-01-29T21:33:50.047Z,61.10
2019-01-29T21:36:19.464Z,61.10
2019-01-29T21:38:48.989Z,61.00
2019-01-29T21:41:18.619Z,61.10
2019-01-29T21:43:48.174Z,61.10
2019-01-29T21:46:18.884Z,61.10
2019-01-29T21:48:48.341Z,61.10
2019-01-29T21:51:17.850Z,61.20
2019-01-29T21:53:47.570Z,61.20
2019-01-29T21:56:17.171Z,61.20
2019-01-29T21:58:48.024Z,61.30
2019-01-29T22:01:17.587Z,61.30
2019-01-29T22:03:47.479Z,61.30
2019-01-29T22:06:21.388Z,61.30
2019-01-29T22:08:51.311Z,61.30
2019-01-29T22:11:20.719Z,61.30
2019-01-29T22:13:50.043Z,61.20
2019-01-29T22:16:19.361Z,61.20
2019-01-29T22:18:48.665Z,61.10
2019-01-29T22:21:18.072Z,61.20
2019-01-29T22:23:47.332Z,61.20
2019-01-29T22:26:16.558Z,61.30
2019-01-29T22:28:46.063Z,61.30
2019-01-29T22:31:15.365Z,62.00
2019-01-29T22:33:44.652Z,61.10
2019-01-29T22:36:13.874Z,61.20
2019-01-29T22:38:43.076Z,61.20
2019-01-29T22:41:12.392Z,61.20
2019-01-29T22:43:41.800Z,61.20
2019-01-29T22:46:11.370Z,61.20
2019-01-29T22:48:42.333Z,61.20
2019-01-29T22:51:13.772Z,61.20
2019-01-29T22:53:43.097Z,61.20
2019-01-29T22:56:12.380Z,61.20
2019-01-29T22:58:41.923Z,61.30
2019-01-29T23:01:24.600Z,61.30
2019-01-29T23:03:58.693Z,61.30
2019-01-29T23:07:09.730Z,61.20
2019-01-29T23:09:39.116Z,61.40
2019-01-29T23:12:08.492Z,61.40
2019-01-29T23:14:37.764Z,61.40
2019-01-29T23:17:07.096Z,61.40
2019-01-29T23:19:36.488Z,61.40
2019-01-29T23:22:06.068Z,61.50
2019-01-29T23:24:35.560Z,62.20
2019-01-29T23:27:04.744Z,61.40
2019-01-29T23:29:43.011Z,61.30
2019-01-29T23:32:05.225Z,61.30
2019-01-29T23:34:34.542Z,61.30
2019-01-29T23:37:03.861Z,61.30
2019-01-29T23:39:33.151Z,61.20
2019-01-29T23:42:02.511Z,62.00
2019-01-29T23:44:31.876Z,61.20
2019-01-29T23:47:01.144Z,61.20
2019-01-29T23:49:30.842Z,61.20
2019-01-29T23:52:00.125Z,61.10
2019-01-29T23:54:29.436Z,61.20
2019-01-29T23:56:58.714Z,61.20
2019-01-29T23:59:28.169Z,61.20
